Time;durP1;ratioP1;P1;durP2;ratioP2;P2;SDS_P1;SDS_P2;PMS_P1;PMS_P2;Temp;Humidity;BMP_temperature;BMP_pressure;BME280_temperature;BME280_humidity;BME280_pressure;Samples;Min_cycle;Max_cycle;Signal;HPM_P1;HPM_P2
2023/05/19 00:06:49;;;;;;;;;7.00;7.00;;;;;;;;2;261083552;261083552;-89
2023/05/19 00:15:05;;;;;;;;;7.00;7.00;;;;;;;;2;216067738;216067738;-89
2023/05/19 00:23:20;;;;;;;;;6.50;6.50;;;;;;;;2;261083354;261083354;-89
2023/05/19 00:31:36;;;;;;;;;8.00;8.00;;;;;;;;2;216067173;216067173;-89
2023/05/19 00:39:52;;;;;;;;;9.50;9.50;;;;;;;;2;261080636;261080636;-89
2023/05/19 00:48:07;;;;;;;;;13.00;13.00;;;;;;;;2;216067058;216067058;-89
2023/05/19 00:56:23;;;;;;;;;9.00;9.00;;;;;;;;2;261080403;261080403;-89
2023/05/19 01:04:40;;;;;;;;;14.00;14.00;;;;;;;;2;216074374;216074374;-89
2023/05/19 01:12:56;;;;;;;;;14.50;14.50;;;;;;;;2;261080680;261080680;-89
2023/05/19 01:21:18;;;;;;;;;13.50;13.50;;;;;;;;2;216071186;216071186;-89
2023/05/19 01:29:52;;;;;;;;;8.50;8.50;;;;;;;;2;261083969;261083969;-89
2023/05/19 01:38:08;;;;;;;;;18.00;18.00;;;;;;;;2;216069443;216069443;-89
2023/05/19 01:46:24;;;;;;;;;7.00;7.00;;;;;;;;2;261085257;261085257;-89
2023/05/19 01:54:40;;;;;;;;;18.00;18.00;;;;;;;;2;216068467;216068467;-89
2023/05/19 02:03:05;;;;;;;;;5.50;5.50;;;;;;;;2;261078516;261078516;-89
2023/05/19 02:11:27;;;;;;;;;12.00;12.00;;;;;;;;2;216070487;216070487;-89
2023/05/19 02:19:43;;;;;;;;;17.00;17.00;;;;;;;;2;261078171;261078171;-89
2023/05/19 02:27:59;;;;;;;;;12.50;12.50;;;;;;;;2;216068307;216068307;-89
2023/05/19 02:36:14;;;;;;;;;7.00;7.00;;;;;;;;2;261081807;261081807;-89
2023/05/19 02:44:30;;;;;;;;;18.00;18.00;;;;;;;;2;216068500;216068500;-89
2023/05/19 02:52:45;;;;;;;;;8.50;8.50;;;;;;;;2;261082411;261082411;-89
2023/05/19 03:01:01;;;;;;;;;12.50;12.50;;;;;;;;2;216070927;216070927;-89
2023/05/19 03:09:16;;;;;;;;;16.00;16.00;;;;;;;;2;261082951;261082951;-89
2023/05/19 03:17:32;;;;;;;;;16.00;16.00;;;;;;;;2;216069486;216069486;-89
2023/05/19 03:25:48;;;;;;;;;13.00;13.00;;;;;;;;2;261077793;261077793;-89
2023/05/19 03:34:03;;;;;;;;;16.00;16.00;;;;;;;;2;216067789;216067789;-89
2023/05/19 03:42:19;;;;;;;;;12.50;12.50;;;;;;;;2;261081812;261081812;-89
2023/05/19 03:50:36;;;;;;;;;11.00;11.00;;;;;;;;2;216066675;216066675;-89
2023/05/19 03:58:53;;;;;;;;;14.00;14.00;;;;;;;;2;261079838;261079838;-89
2023/05/19 04:07:09;;;;;;;;;15.50;15.50;;;;;;;;2;216065970;216065970;-89
2023/05/19 04:15:24;;;;;;;;;13.00;13.00;;;;;;;;2;261081988;261081988;-89
2023/05/19 04:23:40;;;;;;;;;9.50;9.50;;;;;;;;2;216067626;216067626;-89
2023/05/19 04:31:59;;;;;;;;;15.00;15.00;;;;;;;;2;261087415;261087415;-89
2023/05/19 04:40:16;;;;;;;;;14.00;14.00;;;;;;;;2;216067498;216067498;-89
2023/05/19 04:48:32;;;;;;;;;16.50;16.50;;;;;;;;2;261080534;261080534;-89
2023/05/19 04:56:47;;;;;;;;;15.00;15.00;;;;;;;;2;216069801;216069801;-89
2023/05/19 05:05:03;;;;;;;;;28.00;19.00;;;;;;;;2;261084513;261084513;-89
2023/05/19 05:13:22;;;;;;;;;11.00;11.00;;;;;;;;2;216067411;216067411;-89
2023/05/19 05:21:38;;;;;;;;;13.50;13.50;;;;;;;;2;261077481;261077481;-89
2023/05/19 05:29:53;;;;;;;;;13.50;13.50;;;;;;;;2;216069005;216069005;-89
2023/05/19 05:38:10;;;;;;;;;12.00;12.00;;;;;;;;2;261077570;261077570;-89
2023/05/19 05:46:25;;;;;;;;;15.00;15.00;;;;;;;;2;216066107;216066107;-89
2023/05/19 05:54:41;;;;;;;;;20.50;20.50;;;;;;;;2;261085173;261085173;-89
2023/05/19 06:02:57;;;;;;;;;20.00;20.00;;;;;;;;2;216066078;216066078;-89
2023/05/19 06:11:13;;;;;;;;;16.00;16.00;;;;;;;;2;261079663;261079663;-90
2023/05/19 06:19:29;;;;;;;;;16.50;16.50;;;;;;;;2;216064654;216064654;-89
2023/05/19 06:27:44;;;;;;;;;10.00;10.00;;;;;;;;2;261075441;261075441;-93
2023/05/19 06:36:19;;;;;;;;;11.00;11.00;;;;;;;;2;216065727;216065727;-96
2023/05/19 06:53:25;;;;;;;;;10.00;10.00;;;;;;;;2;198217570;198217570;-96
2023/05/19 07:01:40;;;;;;;;;;;;;;;;;;2;261081024;261081024;-93
2023/05/19 07:09:56;;;;;;;;;10.00;10.00;;;;;;;;2;216067291;216067291;-92
2023/05/19 07:18:11;;;;;;;;;11.50;11.50;;;;;;;;2;261085568;261085568;-93
2023/05/19 07:26:28;;;;;;;;;13.00;13.00;;;;;;;;2;216068378;216068378;-93
2023/05/19 07:34:43;;;;;;;;;14.00;14.00;;;;;;;;2;261082883;261082883;-92
2023/05/19 07:43:01;;;;;;;;;7.50;7.50;;;;;;;;2;216066210;216066210;-93
2023/05/19 07:51:18;;;;;;;;;11.50;11.50;;;;;;;;2;261079009;261079009;-93
2023/05/19 07:59:33;;;;;;;;;17.00;17.00;;;;;;;;2;216067182;216067182;-93
2023/05/19 08:07:48;;;;;;;;;14.50;14.50;;;;;;;;2;261081116;261081116;-93
2023/05/19 08:16:04;;;;;;;;;10.50;10.50;;;;;;;;2;216069054;216069054;-93
2023/05/19 08:24:22;;;;;;;;;12.50;12.50;;;;;;;;2;261080524;261080524;-94
2023/05/19 08:32:37;;;;;;;;;2.00;2.00;;;;;;;;2;216067281;216067281;-89
2023/05/19 08:40:53;;;;;;;;;10.50;10.50;;;;;;;;2;261077881;261077881;-88
2023/05/19 08:49:11;;;;;;;;;9.50;9.50;;;;;;;;2;216068357;216068357;-89
2023/05/19 08:57:26;;;;;;;;;7.00;7.00;;;;;;;;2;261076370;261076370;-88
2023/05/19 09:05:42;;;;;;;;;7.00;7.00;;;;;;;;2;216066115;216066115;-88
2023/05/19 09:13:57;;;;;;;;;8.00;8.00;;;;;;;;2;261078297;261078297;-88
2023/05/19 09:22:14;;;;;;;;;8.50;8.50;;;;;;;;2;216063566;216063566;-88
2023/05/19 09:30:29;;;;;;;;;8.50;8.50;;;;;;;;2;261074924;261074924;-89
2023/05/19 09:38:45;;;;;;;;;6.50;6.50;;;;;;;;2;216064419;216064419;-89
2023/05/19 09:47:01;;;;;;;;;10.50;10.50;;;;;;;;2;261076841;261076841;-88
2023/05/19 09:55:18;;;;;;;;;5.50;5.50;;;;;;;;2;216067467;216067467;-88
2023/05/19 10:03:35;;;;;;;;;8.50;8.50;;;;;;;;2;261074060;261074060;-88
2023/05/19 10:11:55;;;;;;;;;4.50;4.50;;;;;;;;2;216064613;216064613;-89
2023/05/19 10:20:14;;;;;;;;;4.50;4.50;;;;;;;;2;261080678;261080678;-88
2023/05/19 10:28:35;;;;;;;;;4.00;4.00;;;;;;;;2;216063774;216063774;-88
2023/05/19 10:37:17;;;;;;;;;6.00;6.00;;;;;;;;2;261079003;261079003;-88
2023/05/19 10:45:35;;;;;;;;;6.00;6.00;;;;;;;;2;216063218;216063218;-89
2023/05/19 10:53:50;;;;;;;;;2.00;2.00;;;;;;;;2;261075122;261075122;-89
2023/05/19 11:02:07;;;;;;;;;10.00;10.00;;;;;;;;2;216066426;216066426;-88
2023/05/19 11:10:22;;;;;;;;;5.00;5.00;;;;;;;;2;261077075;261077075;-88
2023/05/19 11:18:41;;;;;;;;;5.00;5.00;;;;;;;;2;216063138;216063138;-89
2023/05/19 11:26:56;;;;;;;;;5.50;5.50;;;;;;;;2;261077030;261077030;-88
2023/05/19 11:35:12;;;;;;;;;5.50;5.50;;;;;;;;2;216063356;216063356;-89
2023/05/19 11:43:27;;;;;;;;;3.50;3.50;;;;;;;;2;261076967;261076967;-89
2023/05/19 11:51:43;;;;;;;;;5.00;5.00;;;;;;;;2;216067248;216067248;-89
2023/05/19 12:00:01;;;;;;;;;5.00;5.00;;;;;;;;2;261074114;261074114;-89
2023/05/19 12:08:20;;;;;;;;;6.50;6.50;;;;;;;;2;216064364;216064364;-88
2023/05/19 12:16:35;;;;;;;;;4.50;4.50;;;;;;;;2;261078019;261078019;-89
2023/05/19 12:24:51;;;;;;;;;5.50;5.50;;;;;;;;2;216066145;216066145;-88
2023/05/19 12:33:07;;;;;;;;;7.50;7.50;;;;;;;;2;261079039;261079039;-89
2023/05/19 12:41:26;;;;;;;;;7.00;7.00;;;;;;;;2;216063635;216063635;-88
2023/05/19 12:50:01;;;;;;;;;4.50;4.50;;;;;;;;2;261075651;261075651;-89
2023/05/19 12:58:17;;;;;;;;;7.00;7.00;;;;;;;;2;216064399;216064399;-89
2023/05/19 13:06:33;;;;;;;;;7.50;7.50;;;;;;;;2;261076667;261076667;-89
2023/05/19 13:14:48;;;;;;;;;5.50;5.50;;;;;;;;2;216062852;216062852;-88
2023/05/19 13:23:04;;;;;;;;;13.00;13.00;;;;;;;;2;261077759;261077759;-89
2023/05/19 13:31:20;;;;;;;;;6.00;6.00;;;;;;;;2;216063719;216063719;-89
2023/05/19 13:39:35;;;;;;;;;9.00;9.00;;;;;;;;2;261076755;261076755;-88
2023/05/19 13:47:51;;;;;;;;;6.00;6.00;;;;;;;;2;216063377;216063377;-89
2023/05/19 13:56:06;;;;;;;;;5.50;5.50;;;;;;;;2;261077264;261077264;-89
2023/05/19 14:04:25;;;;;;;;;9.00;9.00;;;;;;;;2;216063661;216063661;-88
2023/05/19 14:12:40;;;;;;;;;8.00;8.00;;;;;;;;2;261077107;261077107;-88
2023/05/19 14:20:56;;;;;;;;;6.50;6.50;;;;;;;;2;216063133;216063133;-88
2023/05/19 14:29:11;;;;;;;;;6.50;6.50;;;;;;;;2;261078245;261078245;-89
2023/05/19 14:37:27;;;;;;;;;13.50;13.50;;;;;;;;2;216062513;216062513;-88
2023/05/19 14:45:43;;;;;;;;;8.50;8.50;;;;;;;;2;261074532;261074532;-88
2023/05/19 14:54:00;;;;;;;;;4.50;4.50;;;;;;;;2;216064892;216064892;-88
2023/05/19 15:02:15;;;;;;;;;2.50;2.50;;;;;;;;2;261074461;261074461;-88
2023/05/19 15:10:31;;;;;;;;;4.00;4.00;;;;;;;;2;216064025;216064025;-88
2023/05/19 15:18:46;;;;;;;;;4.50;4.50;;;;;;;;2;261078747;261078747;-89
2023/05/19 15:27:01;;;;;;;;;4.50;4.50;;;;;;;;2;216066048;216066048;-88
2023/05/19 15:35:17;;;;;;;;;5.50;5.50;;;;;;;;2;261075810;261075810;-88
2023/05/19 15:43:32;;;;;;;;;4.00;4.00;;;;;;;;2;216063049;216063049;-88
2023/05/19 15:51:48;;;;;;;;;5.50;5.50;;;;;;;;2;261074370;261074370;-88
2023/05/19 16:00:03;;;;;;;;;10.50;10.50;;;;;;;;2;216061619;216061619;-88
2023/05/19 16:08:19;;;;;;;;;14.50;14.50;;;;;;;;2;261077287;261077287;-88
2023/05/19 16:16:34;;;;;;;;;9.00;9.00;;;;;;;;2;216062866;216062866;-88
2023/05/19 16:24:50;;;;;;;;;5.00;5.00;;;;;;;;2;261074435;261074435;-88
2023/05/19 16:33:05;;;;;;;;;9.50;9.50;;;;;;;;2;216066438;216066438;-88
2023/05/19 16:41:21;;;;;;;;;7.50;7.50;;;;;;;;2;261073784;261073784;-88
2023/05/19 16:49:39;;;;;;;;;9.00;9.00;;;;;;;;2;216065737;216065737;-88
2023/05/19 16:57:54;;;;;;;;;9.00;9.00;;;;;;;;2;261077052;261077052;-88
2023/05/19 17:06:10;;;;;;;;;7.00;7.00;;;;;;;;2;216064602;216064602;-88
2023/05/19 17:14:25;;;;;;;;;7.00;7.00;;;;;;;;2;261075986;261075986;-88
2023/05/19 17:22:40;;;;;;;;;3.50;3.50;;;;;;;;2;216065849;216065849;-88
2023/05/19 17:30:56;;;;;;;;;9.50;9.50;;;;;;;;2;261075761;261075761;-88
2023/05/19 17:39:11;;;;;;;;;10.50;10.50;;;;;;;;2;216063907;216063907;-88
2023/05/19 17:47:29;;;;;;;;;14.00;10.00;;;;;;;;2;261073779;261073779;-88
2023/05/19 17:55:48;;;;;;;;;5.50;5.50;;;;;;;;2;216062834;216062834;-88
2023/05/19 18:04:04;;;;;;;;;7.00;7.00;;;;;;;;2;261077232;261077232;-88
2023/05/19 18:12:20;;;;;;;;;9.50;9.50;;;;;;;;2;216062438;216062438;-88
2023/05/19 18:20:36;;;;;;;;;5.00;5.00;;;;;;;;2;261075537;261075537;-88
2023/05/19 18:28:52;;;;;;;;;4.50;4.50;;;;;;;;2;216065106;216065106;-88
2023/05/19 18:37:07;;;;;;;;;8.00;8.00;;;;;;;;2;261075196;261075196;-88
2023/05/19 18:45:23;;;;;;;;;6.50;6.50;;;;;;;;2;216063337;216063337;-88
2023/05/19 18:53:38;;;;;;;;;9.50;9.50;;;;;;;;2;261078629;261078629;-88
2023/05/19 19:01:53;;;;;;;;;11.50;11.50;;;;;;;;2;216063045;216063045;-88
2023/05/19 19:10:10;;;;;;;;;4.50;4.50;;;;;;;;2;261078490;261078490;-88
2023/05/19 19:18:25;;;;;;;;;2.00;2.00;;;;;;;;2;216064238;216064238;-88
2023/05/19 19:26:41;;;;;;;;;2.00;2.00;;;;;;;;2;261075738;261075738;-88
2023/05/19 19:38:15;;;;;;;;;7.50;7.50;;;;;;;;2;216060869;216060869;-88
2023/05/19 19:46:31;;;;;;;;;4.00;4.00;;;;;;;;2;261074538;261074538;-88
2023/05/19 19:54:47;;;;;;;;;3.00;3.00;;;;;;;;2;216063603;216063603;-88
2023/05/19 20:03:02;;;;;;;;;2.50;2.50;;;;;;;;2;261078211;261078211;-88
2023/05/19 20:11:18;;;;;;;;;5.50;5.50;;;;;;;;2;216063202;216063202;-88
2023/05/19 20:19:34;;;;;;;;;5.00;5.00;;;;;;;;2;261073971;261073971;-88
2023/05/19 20:27:49;;;;;;;;;4.50;4.50;;;;;;;;2;216064971;216064971;-88
2023/05/19 20:36:06;;;;;;;;;6.00;6.00;;;;;;;;2;261075501;261075501;-88
2023/05/19 20:44:21;;;;;;;;;9.50;9.50;;;;;;;;2;216064802;216064802;-88
2023/05/19 20:52:36;;;;;;;;;5.00;5.00;;;;;;;;2;261078698;261078698;-87
2023/05/19 21:00:56;;;;;;;;;20.50;11.50;;;;;;;;2;216064129;216064129;-88
2023/05/19 21:09:11;;;;;;;;;6.00;6.00;;;;;;;;2;261073398;261073398;-88
2023/05/19 21:17:27;;;;;;;;;5.50;5.50;;;;;;;;2;216065270;216065270;-88
2023/05/19 21:25:42;;;;;;;;;6.50;6.50;;;;;;;;2;261077164;261077164;-88
2023/05/19 21:33:57;;;;;;;;;20.00;8.50;;;;;;;;2;216064146;216064146;-88
2023/05/19 21:42:13;;;;;;;;;0.00;0.00;;;;;;;;2;261075103;261075103;-88
2023/05/19 21:50:28;;;;;;;;;14.00;5.00;;;;;;;;2;216064431;216064431;-88
2023/05/19 21:58:44;;;;;;;;;7.00;7.00;;;;;;;;2;261076564;261076564;-88
2023/05/19 22:06:59;;;;;;;;;6.00;6.00;;;;;;;;2;216063794;216063794;-88
2023/05/19 22:15:15;;;;;;;;;4.50;4.50;;;;;;;;2;261078801;261078801;-88
2023/05/19 22:23:31;;;;;;;;;7.50;7.50;;;;;;;;2;216065215;216065215;-87
2023/05/19 22:31:46;;;;;;;;;9.00;9.00;;;;;;;;2;261079492;261079492;-88
2023/05/19 22:40:01;;;;;;;;;5.50;5.50;;;;;;;;2;216061985;216061985;-88
2023/05/19 22:48:17;;;;;;;;;7.00;7.00;;;;;;;;2;261078656;261078656;-88
2023/05/19 22:56:32;;;;;;;;;7.00;7.00;;;;;;;;2;216065927;216065927;-88
2023/05/19 23:04:48;;;;;;;;;8.00;8.00;;;;;;;;2;261076386;261076386;-87
2023/05/19 23:13:03;;;;;;;;;5.00;5.00;;;;;;;;2;216061071;216061071;-87
2023/05/19 23:21:19;;;;;;;;;3.50;3.50;;;;;;;;2;261074958;261074958;-88
2023/05/19 23:29:34;;;;;;;;;4.50;4.50;;;;;;;;2;216061996;216061996;-88
2023/05/19 23:37:49;;;;;;;;;10.00;10.00;;;;;;;;2;261078631;261078631;-88
2023/05/19 23:46:05;;;;;;;;;6.50;6.50;;;;;;;;2;216063116;216063116;-88
2023/05/19 23:54:20;;;;;;;;;3.50;3.50;;;;;;;;2;261076611;261076611;-88
